Time;durP1;ratioP1;P1;durP2;ratioP2;P2;SDS_P1;SDS_P2;PMS_P1;PMS_P2;Temp;Humidity;BMP_temperature;BMP_pressure;BME280_temperature;BME280_humidity;BME280_pressure;Samples;Min_cycle;Max_cycle;Signal;HPM_P1;HPM_P2
2022/06/09 00:00:16;;;;;;;4.55;2.30;;;;;;;22.34;34.75;99206.16;4975109;28;20042;-67
2022/06/09 00:02:45;;;;;;;4.82;2.58;;;;;;;22.34;34.75;99199.94;4974783;28;20035;-67
2022/06/09 00:05:12;;;;;;;5.43;2.60;;;;;;;22.36;34.85;99197.84;4975103;28;20041;-64
2022/06/09 00:07:38;;;;;;;5.70;2.60;;;;;;;22.35;34.79;99191.63;4975037;28;20189;-68
2022/06/09 00:10:09;;;;;;;6.00;2.47;;;;;;;22.36;34.72;99190.59;4974848;28;20030;-68
2022/06/09 00:12:35;;;;;;;6.28;2.65;;;;;;;22.36;34.75;99195.97;4974326;28;20047;-67
2022/06/09 00:15:04;;;;;;;5.40;2.20;;;;;;;22.34;34.82;99195.38;4974487;28;20034;-66
2022/06/09 00:17:29;;;;;;;5.47;2.60;;;;;;;22.35;34.67;99194.31;4974193;28;20038;-68
2022/06/09 00:19:55;;;;;;;6.20;2.33;;;;;;;22.34;34.85;99192.69;4974655;28;20034;-68
2022/06/09 00:22:20;;;;;;;7.20;2.78;;;;;;;22.33;34.75;99192.88;4974764;28;20461;-66
2022/06/09 00:24:46;;;;;;;4.75;2.70;;;;;;;22.31;34.88;99195.78;4974827;28;20042;-67
2022/06/09 00:27:12;;;;;;;5.32;2.17;;;;;;;22.33;34.91;99201.81;4973868;28;20479;-65
2022/06/09 00:29:38;;;;;;;5.50;2.33;;;;;;;22.32;34.92;99191.22;4974472;28;20512;-67
2022/06/09 00:32:04;;;;;;;6.18;2.60;;;;;;;22.31;34.92;99194.94;4974262;28;20035;-66
2022/06/09 00:34:29;;;;;;;3.85;2.22;;;;;;;22.31;34.94;99189.56;4974589;28;20027;-68
2022/06/09 00:36:55;;;;;;;5.10;2.28;;;;;;;22.31;35.00;99190.41;4973632;28;20520;-69
2022/06/09 00:39:20;;;;;;;10.73;2.65;;;;;;;22.31;35.01;99186.84;4974316;28;20113;-66
2022/06/09 00:41:45;;;;;;;5.88;2.28;;;;;;;22.30;34.94;99185.19;4974275;28;20081;-67
2022/06/09 00:44:31;;;;;;;5.30;2.20;;;;;;;22.29;35.01;99181.69;4973876;28;20089;-67
2022/06/09 00:47:06;;;;;;;4.22;2.38;;;;;;;22.28;35.00;99177.34;4973345;28;20422;-67
2022/06/09 00:50:05;;;;;;;4.88;2.47;;;;;;;22.27;35.02;99186.44;4974462;28;20050;-68
2022/06/09 00:52:36;;;;;;;6.20;3.05;;;;;;;22.27;35.09;99175.66;4973883;28;20055;-67
2022/06/09 00:55:11;;;;;;;8.35;2.45;;;;;;;22.24;34.96;99174.22;4972739;28;20081;-69
2022/06/09 00:57:51;;;;;;;4.90;2.38;;;;;;;22.24;35.04;99179.63;4973675;28;20062;-67
2022/06/09 01:00:25;;;;;;;4.43;2.30;;;;;;;22.24;35.11;99176.06;4981628;28;20049;-67
2022/06/09 01:02:54;;;;;;;5.57;3.08;;;;;;;22.24;35.13;99178.78;4993901;28;20034;-68
2022/06/09 01:05:22;;;;;;;6.07;2.35;;;;;;;22.25;35.18;99175.03;4993243;28;20038;-68
2022/06/09 01:07:54;;;;;;;4.63;2.30;;;;;;;22.23;35.19;99175.25;4981346;28;20042;-69
2022/06/09 01:10:20;;;;;;;4.90;2.20;;;;;;;22.21;35.29;99177.31;4973819;28;20038;-69
2022/06/09 01:12:48;;;;;;;5.90;2.30;;;;;;;22.23;35.30;99175.25;4973482;28;20387;-69
2022/06/09 01:15:20;;;;;;;4.18;2.15;;;;;;;22.22;35.32;99181.69;4973750;28;20121;-67
2022/06/09 01:18:07;;;;;;;4.85;2.45;;;;;;;22.23;35.22;99180.66;4974553;28;20393;-69
2022/06/09 01:21:00;;;;;;;4.07;2.25;;;;;;;22.23;35.44;99177.09;4974089;28;20050;-69
2022/06/09 01:23:50;;;;;;;3.60;2.00;;;;;;;22.23;35.50;99185.19;4955030;28;20043;-67
2022/06/09 01:26:18;;;;;;;4.05;2.40;;;;;;;22.22;35.63;99179.00;4954368;28;20035;-68
2022/06/09 01:29:11;;;;;;;6.22;2.83;;;;;;;22.23;35.49;99180.66;4954459;29;20067;-69
2022/06/09 01:31:50;;;;;;;3.33;2.15;;;;;;;22.22;35.52;99176.28;4966784;28;20378;-67
2022/06/09 01:34:26;;;;;;;4.57;2.63;;;;;;;22.23;35.60;99183.34;4977720;28;20045;-68
2022/06/09 01:36:57;;;;;;;4.85;2.67;;;;;;;22.22;35.42;99181.69;4973838;28;20034;-67
2022/06/09 01:39:28;;;;;;;3.65;2.28;;;;;;;22.24;35.69;99173.38;4973878;28;20039;-68
2022/06/09 01:41:54;;;;;;;3.03;2.08;;;;;;;22.24;35.63;99176.06;4972732;28;20631;-68
2022/06/09 01:44:20;;;;;;;3.55;2.22;;;;;;;22.22;35.74;99173.59;4974375;28;20118;-67
2022/06/09 01:46:47;;;;;;;5.00;2.28;;;;;;;22.23;35.54;99175.25;4973752;28;20038;-68
2022/06/09 01:49:21;;;;;;;4.90;2.15;;;;;;;22.24;35.66;99176.91;4973849;28;20442;-69
2022/06/09 01:51:49;;;;;;;5.28;2.33;;;;;;;22.26;35.71;99182.09;4975241;28;20422;-67
2022/06/09 01:54:22;;;;;;;7.22;2.40;;;;;;;22.25;35.75;99173.19;4975939;28;20039;-67
2022/06/09 01:56:56;;;;;;;3.78;2.20;;;;;;;22.25;35.58;99181.28;4977177;28;20433;-69
2022/06/09 01:59:27;;;;;;;4.32;2.25;;;;;;;22.25;35.62;99175.03;4977477;28;20038;-69
2022/06/09 02:01:56;;;;;;;4.95;1.90;;;;;;;22.27;35.78;99180.25;4976190;28;20124;-69
2022/06/09 02:04:35;;;;;;;6.18;2.20;;;;;;;22.27;35.74;99178.38;4977434;28;20031;-68
2022/06/09 02:07:04;;;;;;;3.85;2.30;;;;;;;22.27;35.78;99172.16;4976444;28;20038;-69
2022/06/09 02:09:32;;;;;;;7.78;2.88;;;;;;;22.27;35.66;99172.97;4977530;28;20486;-68
2022/06/09 02:12:03;;;;;;;4.97;2.42;;;;;;;22.28;35.72;99166.56;4976704;28;20118;-70
2022/06/09 02:14:31;;;;;;;6.07;2.33;;;;;;;22.30;35.80;99179.81;4977150;28;20468;-69
2022/06/09 02:16:59;;;;;;;3.72;2.03;;;;;;;22.31;35.79;99176.06;4975811;28;20030;-68
2022/06/09 02:19:26;;;;;;;8.48;3.15;;;;;;;22.31;35.90;99168.00;4976712;28;20034;-69
2022/06/09 02:21:52;;;;;;;4.05;2.25;;;;;;;22.34;35.88;99170.28;4988707;28;20042;-69
2022/06/09 02:24:18;;;;;;;6.50;3.00;;;;;;;22.45;35.68;99171.56;4996485;28;20045;-69
2022/06/09 02:26:43;;;;;;;5.07;2.50;;;;;;;22.65;35.78;99168.84;4984333;28;20047;-69
2022/06/09 02:29:09;;;;;;;5.32;3.35;;;;;;;22.85;35.63;99177.75;4976938;28;20043;-68
2022/06/09 02:31:34;;;;;;;6.43;2.38;;;;;;;23.04;35.52;99177.91;4976588;28;20482;-68
2022/06/09 02:34:00;;;;;;;6.10;2.30;;;;;;;23.24;35.24;99180.56;4976556;28;20042;-68
2022/06/09 02:36:25;;;;;;;4.50;2.63;;;;;;;23.38;34.93;99184.06;4976274;28;20486;-69
2022/06/09 02:38:51;;;;;;;4.20;2.28;;;;;;;23.38;34.99;99178.66;4976784;28;20446;-69
2022/06/09 02:41:17;;;;;;;4.45;2.67;;;;;;;23.35;35.23;99178.28;4976345;28;20070;-70
2022/06/09 02:43:42;;;;;;;5.18;2.60;;;;;;;23.32;35.29;99184.91;4976404;28;20094;-69
2022/06/09 02:46:08;;;;;;;5.93;2.67;;;;;;;23.26;35.14;99185.78;4975650;28;20409;-69
2022/06/09 02:48:34;;;;;;;5.63;2.90;;;;;;;23.24;35.34;99187.84;4976908;28;20050;-69
2022/06/09 02:51:31;;;;;;;5.78;3.10;;;;;;;23.19;35.42;99180.38;4976326;28;20058;-69
2022/06/09 02:53:59;;;;;;;4.90;2.72;;;;;;;23.15;35.60;99182.66;4976357;28;20050;-68
2022/06/09 02:56:25;;;;;;;5.25;2.55;;;;;;;23.14;35.56;99183.72;4975203;28;20038;-68
2022/06/09 02:58:50;;;;;;;9.07;3.33;;;;;;;23.15;35.47;99182.66;4975873;28;20045;-69
2022/06/09 03:01:16;;;;;;;7.40;2.83;;;;;;;23.16;35.85;99183.47;4976322;28;20038;-68
2022/06/09 03:03:42;;;;;;;9.38;3.33;;;;;;;23.20;35.79;99186.56;4976125;28;20027;-70
2022/06/09 03:06:08;;;;;;;6.47;3.40;;;;;;;23.22;35.68;99185.38;4975227;28;20553;-70
2022/06/09 03:08:34;;;;;;;5.47;3.20;;;;;;;23.27;35.68;99184.72;4975899;28;20026;-69
2022/06/09 03:11:00;;;;;;;8.63;3.47;;;;;;;23.38;35.52;99188.66;4987007;28;20065;-69
2022/06/09 03:13:26;;;;;;;9.75;3.33;;;;;;;23.61;35.68;99188.09;4995484;28;20434;-68
2022/06/09 03:15:51;;;;;;;5.53;2.90;;;;;;;23.88;34.87;99186.09;4993408;28;20045;-69
2022/06/09 03:18:18;;;;;;;6.35;2.42;;;;;;;24.20;34.68;99183.44;4976006;28;20086;-68
2022/06/09 03:20:44;;;;;;;5.00;2.67;;;;;;;24.52;33.67;99182.56;4975648;28;20035;-68
2022/06/09 03:23:09;;;;;;;4.15;2.78;;;;;;;24.82;33.59;99185.44;4975966;28;20041;-69
2022/06/09 03:25:36;;;;;;;4.28;2.53;;;;;;;25.09;33.25;99189.75;4975594;28;20039;-68
2022/06/09 03:28:02;;;;;;;6.03;2.97;;;;;;;25.31;32.80;99178.47;4974767;28;20039;-70
2022/06/09 03:30:28;;;;;;;4.80;2.65;;;;;;;25.47;32.61;99177.06;4975239;28;20069;-67
2022/06/09 03:32:53;;;;;;;4.45;2.13;;;;;;;25.48;32.69;99190.38;4975642;28;20118;-68
2022/06/09 03:35:19;;;;;;;3.80;2.17;;;;;;;25.46;32.81;99188.94;4975597;28;20037;-69
2022/06/09 03:37:44;;;;;;;6.22;2.47;;;;;;;25.45;32.27;99182.72;4975444;28;20501;-67
2022/06/09 03:40:15;;;;;;;3.60;2.30;;;;;;;25.44;32.77;99186.47;4975447;28;20042;-68
2022/06/09 03:42:41;;;;;;;3.95;2.25;;;;;;;25.38;32.84;99180.06;4975269;28;20406;-69
2022/06/09 03:45:07;;;;;;;5.70;2.70;;;;;;;25.32;32.54;99183.66;4975187;28;20042;-69
2022/06/09 03:47:32;;;;;;;6.72;2.60;;;;;;;25.35;32.75;99185.09;4975622;28;20462;-69
2022/06/09 03:49:58;;;;;;;5.50;2.80;;;;;;;25.39;32.86;99180.88;4975389;28;20062;-70
2022/06/09 03:52:23;;;;;;;6.80;2.72;;;;;;;25.39;32.91;99180.88;4974917;28;20063;-69
2022/06/09 03:54:49;;;;;;;5.45;2.08;;;;;;;25.35;33.01;99182.41;4974918;28;20043;-68
2022/06/09 03:57:14;;;;;;;6.20;3.25;;;;;;;25.26;33.04;99185.38;4975361;28;20137;-69
2022/06/09 03:59:40;;;;;;;3.47;2.05;;;;;;;25.17;33.48;99188.63;4981630;28;20038;-69
2022/06/09 04:02:05;;;;;;;4.55;2.28;;;;;;;25.12;33.60;99192.84;4979671;28;20034;-69
2022/06/09 04:04:31;;;;;;;5.72;2.15;;;;;;;25.08;33.63;99190.78;4975168;28;20041;-68
2022/06/09 04:06:58;;;;;;;4.63;2.42;;;;;;;25.01;33.54;99185.44;4975106;28;20038;-69
2022/06/09 04:09:23;;;;;;;5.78;2.58;;;;;;;24.99;33.55;99190.28;4975610;28;20125;-69
2022/06/09 04:11:49;;;;;;;6.38;2.80;;;;;;;24.96;33.68;99190.72;4974604;28;20178;-69
2022/06/09 04:14:14;;;;;;;5.15;2.85;;;;;;;24.91;33.56;99190.56;4974445;28;20038;-68
2022/06/09 04:16:44;;;;;;;4.68;2.72;;;;;;;24.92;33.46;99187.66;4974950;28;20505;-69
2022/06/09 04:19:12;;;;;;;5.18;2.28;;;;;;;24.95;33.89;99181.78;4974950;28;20035;-68
2022/06/09 04:21:38;;;;;;;5.30;2.45;;;;;;;24.98;33.94;99181.31;4974281;28;20097;-68
2022/06/09 04:24:04;;;;;;;6.05;2.40;;;;;;;24.99;33.97;99182.16;4974864;28;20451;-67
2022/06/09 04:26:37;;;;;;;5.10;2.20;;;;;;;24.98;34.01;99180.50;4974447;28;20038;-69
2022/06/09 04:29:05;;;;;;;7.28;2.30;;;;;;;24.97;33.73;99178.84;4974460;28;20493;-69
2022/06/09 04:31:32;;;;;;;5.30;2.25;;;;;;;25.09;33.86;99184.31;4974079;28;20034;-68
2022/06/09 04:33:57;;;;;;;7.43;2.13;;;;;;;25.31;33.17;99181.19;4974109;28;20375;-69
2022/06/09 04:36:23;;;;;;;4.88;2.53;;;;;;;25.62;32.78;99184.78;4974041;28;20038;-69
2022/06/09 04:38:48;;;;;;;3.67;2.17;;;;;;;25.95;32.40;99178.09;4974188;28;20030;-69
2022/06/09 04:41:16;;;;;;;4.22;2.65;;;;;;;26.24;32.17;99181.03;4974415;28;20039;-69
2022/06/09 04:43:44;;;;;;;4.45;2.50;;;;;;;26.48;31.78;99181.88;4973748;28;20126;-69
2022/06/09 04:46:11;;;;;;;4.10;2.05;;;;;;;26.68;31.44;99181.56;4974178;28;20394;-69
2022/06/09 04:48:37;;;;;;;6.75;3.08;;;;;;;26.85;31.26;99186.28;4974402;28;20071;-69
2022/06/09 04:51:10;;;;;;;7.10;2.38;;;;;;;26.96;30.87;99178.13;4973913;28;20654;-69
2022/06/09 04:53:37;;;;;;;4.03;2.45;;;;;;;27.10;30.84;99188.72;4973426;28;20121;-69
2022/06/09 04:56:02;;;;;;;4.15;2.08;;;;;;;27.19;30.85;99186.47;4974207;28;20065;-70
2022/06/09 04:58:28;;;;;;;6.65;2.35;;;;;;;27.26;30.67;99198.88;4974195;28;20062;-69
2022/06/09 05:00:53;;;;;;;2.53;1.83;;;;;;;27.34;30.68;99208.53;4973911;28;20493;-68
2022/06/09 05:03:20;;;;;;;4.65;2.13;;;;;;;27.40;30.31;99204.88;4973629;28;20030;-69
2022/06/09 05:05:47;;;;;;;5.28;2.38;;;;;;;27.45;30.34;99193.31;4974117;28;20061;-70
2022/06/09 05:08:12;;;;;;;4.18;2.15;;;;;;;27.50;30.50;99206.16;4973965;28;20035;-67
2022/06/09 05:10:39;;;;;;;4.88;2.08;;;;;;;27.52;30.53;99193.16;4974387;28;20398;-68
2022/06/09 05:13:06;;;;;;;3.10;1.90;;;;;;;27.55;30.22;99190.78;4973106;28;20099;-68
2022/06/09 05:15:37;;;;;;;5.97;2.40;;;;;;;27.58;30.48;99197.63;4973911;28;20039;-69
2022/06/09 05:18:04;;;;;;;2.85;1.67;;;;;;;27.57;30.32;99193.28;4973746;28;20041;-69
2022/06/09 05:20:30;;;;;;;3.90;2.33;;;;;;;27.59;30.37;99198.47;4974668;28;20077;-70
2022/06/09 05:22:56;;;;;;;4.22;2.80;;;;;;;27.58;30.15;99194.09;4978809;28;20093;-70
2022/06/09 05:25:22;;;;;;;6.00;2.25;;;;;;;27.56;30.20;99197.06;4974422;28;20061;-68
2022/06/09 05:27:47;;;;;;;3.45;1.92;;;;;;;27.52;30.46;99191.25;4977688;28;20038;-68
2022/06/09 05:30:19;;;;;;;4.72;2.05;;;;;;;27.51;30.42;99194.22;4977955;28;20569;-70
2022/06/09 05:32:46;;;;;;;3.42;1.80;;;;;;;27.50;30.42;99198.00;4976971;28;20053;-70
2022/06/09 05:35:11;;;;;;;3.67;1.90;;;;;;;27.46;30.49;99188.69;4977361;28;20097;-68
2022/06/09 05:45:54;;;;;;;4.20;1.95;;;;;;;27.23;30.90;99195.81;4977513;28;20073;-68
2022/06/09 05:48:19;;;;;;;2.95;1.83;;;;;;;27.20;30.88;99190.84;4977569;28;20476;-68
2022/06/09 05:50:45;;;;;;;4.55;1.80;;;;;;;27.15;30.75;99190.72;4977373;28;20538;-68
2022/06/09 05:53:10;;;;;;;3.42;1.90;;;;;;;27.14;30.92;99191.78;4977765;28;20097;-69
2022/06/09 05:55:36;;;;;;;4.05;1.88;;;;;;;27.10;31.11;99189.56;4977462;28;20038;-69
2022/06/09 05:58:01;;;;;;;3.92;2.15;;;;;;;27.07;31.07;99184.63;4977469;28;20031;-69
2022/06/09 06:00:27;;;;;;;4.47;2.03;;;;;;;27.05;30.99;99184.03;4976710;28;20031;-69
2022/06/09 06:02:52;;;;;;;2.92;1.63;;;;;;;27.03;31.29;99177.19;4977151;28;20089;-67
2022/06/09 06:08:06;;;;;;;2.88;1.85;;;;;;;26.93;31.29;99173.16;4958511;28;20101;-68
2022/06/09 06:10:32;;;;;;;3.38;1.95;;;;;;;26.91;31.39;99171.75;4977697;28;20430;-68
2022/06/09 06:12:57;;;;;;;4.20;1.60;;;;;;;26.89;31.25;99171.16;4976689;28;20030;-69
2022/06/09 06:15:23;;;;;;;2.55;1.73;;;;;;;26.85;31.34;99181.69;4976589;28;20046;-68
2022/06/09 06:17:48;;;;;;;3.25;1.83;;;;;;;26.81;31.53;99177.78;4977127;28;20098;-68
2022/06/09 06:20:14;;;;;;;3.42;1.63;;;;;;;26.78;31.48;99183.66;4976908;28;20418;-68
2022/06/09 06:22:39;;;;;;;4.28;2.50;;;;;;;26.73;31.58;99178.94;4975966;28;20038;-68
2022/06/09 06:25:06;;;;;;;2.72;1.90;;;;;;;26.69;31.90;99177.75;4976988;28;20026;-68
2022/06/09 06:27:32;;;;;;;3.10;1.60;;;;;;;26.62;31.84;99177.06;4976869;28;20030;-67
2022/06/09 06:29:57;;;;;;;3.50;1.60;;;;;;;26.57;32.09;99179.63;4976021;28;20343;-67
2022/06/09 06:32:22;;;;;;;2.58;1.83;;;;;;;26.53;32.11;99176.56;4975606;28;20031;-68
2022/06/09 06:34:48;;;;;;;2.67;1.40;;;;;;;26.49;32.25;99176.22;4976771;28;20034;-69
2022/06/09 06:37:14;;;;;;;3.05;1.63;;;;;;;26.43;31.98;99174.44;4976006;28;20038;-67
2022/06/09 06:39:39;;;;;;;4.53;1.90;;;;;;;26.40;32.11;99179.50;4976490;28;20117;-68
2022/06/09 06:42:05;;;;;;;5.50;1.75;;;;;;;26.35;32.19;99177.50;4976114;28;20041;-68
2022/06/09 06:44:30;;;;;;;3.28;1.60;;;;;;;26.32;32.52;99183.38;4976723;28;20394;-67
2022/06/09 06:46:55;;;;;;;3.50;1.92;;;;;;;26.27;32.63;99178.66;4975806;28;20050;-68
2022/06/09 06:49:21;;;;;;;3.33;1.85;;;;;;;26.25;32.59;99186.22;4976825;28;20054;-67
2022/06/09 06:51:48;;;;;;;4.93;1.38;;;;;;;26.22;32.48;99177.72;4975827;28;20055;-67
2022/06/09 06:54:13;;;;;;;2.63;1.40;;;;;;;26.19;32.58;99179.84;4976453;28;20138;-68
2022/06/09 06:56:39;;;;;;;4.07;2.10;;;;;;;26.16;32.60;99183.00;4975148;28;20109;-69
2022/06/09 06:59:04;;;;;;;3.45;1.90;;;;;;;26.13;32.56;99178.03;4976067;28;20051;-69
2022/06/09 07:01:30;;;;;;;3.13;1.50;;;;;;;26.11;32.70;99174.72;4976332;28;20035;-69
2022/06/09 07:03:56;;;;;;;3.70;1.70;;;;;;;26.10;32.77;99178.47;4976304;28;20043;-69
2022/06/09 07:06:22;;;;;;;3.97;1.38;;;;;;;26.09;32.89;99171.41;4975615;28;20034;-66
2022/06/09 07:08:47;;;;;;;3.22;1.83;;;;;;;26.05;32.74;99167.50;4974676;28;20501;-68
2022/06/09 07:11:13;;;;;;;3.72;1.88;;;;;;;26.03;32.93;99164.19;4975748;28;20097;-70
2022/06/09 07:13:38;;;;;;;3.55;1.40;;;;;;;26.02;32.99;99166.09;4975935;28;20066;-68
2022/06/09 07:16:06;;;;;;;6.90;1.83;;;;;;;25.99;32.86;99169.25;4975925;28;20134;-68
2022/06/09 07:18:32;;;;;;;3.25;1.48;;;;;;;25.98;32.74;99169.47;4976036;28;20035;-68
2022/06/09 07:20:59;;;;;;;3.03;1.83;;;;;;;25.97;32.46;99168.66;4975477;28;20062;-68
2022/06/09 07:23:26;;;;;;;3.63;1.85;;;;;;;25.93;32.50;99164.75;4975728;28;20083;-68
2022/06/09 07:25:52;;;;;;;3.15;1.70;;;;;;;25.92;32.72;99168.53;4975530;28;20039;-68
2022/06/09 07:28:18;;;;;;;4.18;1.23;;;;;;;25.92;32.57;99167.72;4974706;28;20038;-68
2022/06/09 07:30:44;;;;;;;5.80;1.40;;;;;;;25.89;32.75;99169.81;4974109;28;20060;-69
2022/06/09 07:33:10;;;;;;;2.55;1.48;;;;;;;25.90;32.57;99171.47;4991764;28;20034;-68
2022/06/09 07:35:37;;;;;;;5.30;1.52;;;;;;;25.88;32.82;99168.16;4994790;28;20401;-69
2022/06/09 07:38:05;;;;;;;2.90;1.20;;;;;;;25.88;32.86;99175.47;4974496;28;20047;-69
2022/06/09 07:40:33;;;;;;;4.88;2.10;;;;;;;25.86;32.66;99183.00;4975333;28;20409;-69
2022/06/09 07:42:58;;;;;;;4.30;1.58;;;;;;;25.85;32.66;99170.50;4975286;28;20391;-69
2022/06/09 07:45:24;;;;;;;2.67;1.75;;;;;;;25.83;32.41;99168.03;4975473;28;20041;-68
2022/06/09 07:47:49;;;;;;;4.75;2.22;;;;;;;25.82;32.57;99160.94;4974602;28;20425;-69
2022/06/09 07:50:16;;;;;;;3.42;1.55;;;;;;;25.80;32.63;99162.25;4974863;28;20039;-69
2022/06/09 07:52:41;;;;;;;2.25;1.20;;;;;;;25.80;32.87;99159.53;4974490;28;20066;-70
2022/06/09 07:55:08;;;;;;;2.80;1.50;;;;;;;25.80;32.49;99165.78;4974963;28;20410;-69
2022/06/09 07:57:34;;;;;;;2.78;1.33;;;;;;;25.79;32.43;99163.28;4975290;28;20031;-68
2022/06/09 07:59:59;;;;;;;5.70;1.75;;;;;;;25.77;32.36;99165.41;4975338;28;20489;-69
2022/06/09 08:02:25;;;;;;;4.72;1.33;;;;;;;25.75;32.53;99168.34;4971446;28;20038;-65
2022/06/09 08:04:50;;;;;;;10.70;1.77;;;;;;;25.73;32.00;99162.34;4972596;28;20106;-67
2022/06/09 08:07:16;;;;;;;4.57;1.90;;;;;;;25.72;31.74;99163.38;4973907;28;20030;-68
2022/06/09 08:09:41;;;;;;;4.70;1.80;;;;;;;25.70;31.76;99160.91;4973363;28;20026;-68
2022/06/09 08:12:07;;;;;;;6.88;1.63;;;;;;;25.68;31.70;99176.56;4972743;28;20038;-68
2022/06/09 08:14:33;;;;;;;5.00;1.42;;;;;;;25.65;31.18;99159.97;4972986;28;20120;-67
2022/06/09 08:16:58;;;;;;;5.00;1.50;;;;;;;25.65;31.16;99166.19;4973134;28;20482;-67
2022/06/09 08:19:25;;;;;;;4.03;1.50;;;;;;;25.61;31.61;99158.75;4973405;28;20405;-67
2022/06/09 08:21:51;;;;;;;11.90;2.17;;;;;;;25.58;31.91;99158.16;4971993;28;20577;-68
2022/06/09 08:24:16;;;;;;;8.38;1.50;;;;;;;25.57;32.12;99161.91;4971058;28;20030;-70
2022/06/09 08:26:42;;;;;;;7.47;1.75;;;;;;;25.56;32.22;99162.16;4968254;28;20035;-68
2022/06/09 08:29:08;;;;;;;8.70;1.40;;;;;;;25.52;31.86;99159.06;4973936;28;20378;-68
2022/06/09 08:31:33;;;;;;;10.20;2.08;;;;;;;25.47;31.88;99156.22;4974266;28;20039;-68
2022/06/09 08:33:58;;;;;;;7.38;2.45;;;;;;;25.46;32.28;99154.56;4973927;28;20117;-69
2022/06/09 08:36:24;;;;;;;5.28;2.42;;;;;;;25.44;32.32;99156.69;4973447;28;20085;-67
2022/06/09 08:38:50;;;;;;;11.73;2.70;;;;;;;25.41;32.21;99154.38;4974295;28;20121;-68
2022/06/09 08:41:52;;;;;;;6.85;2.60;;;;;;;25.40;32.47;99158.16;4974318;28;20489;-71
2022/06/09 08:44:58;;;;;;;9.13;3.60;;;;;;;25.36;32.48;99157.78;4973065;28;20034;-68
2022/06/09 08:47:38;;;;;;;14.90;4.53;;;;;;;25.34;32.39;99168.00;4954660;28;20490;-68
2022/06/09 08:50:35;;;;;;;19.37;6.03;;;;;;;25.33;32.81;99158.22;4965995;28;20402;-69
2022/06/09 08:53:08;;;;;;;26.25;6.68;;;;;;;25.29;32.65;99155.16;4954676;28;20302;-69
2022/06/09 08:55:42;;;;;;;20.90;5.68;;;;;;;25.34;32.33;99156.38;4970484;28;20093;-69
2022/06/09 08:58:17;;;;;;;16.30;5.28;;;;;;;25.32;32.30;99153.88;4973585;28;20127;-68
2022/06/09 09:00:48;;;;;;;15.32;5.85;;;;;;;25.32;32.40;99159.28;4973573;28;20042;-69
2022/06/09 09:03:23;;;;;;;16.13;6.65;;;;;;;25.31;32.95;99146.78;4973369;28;20510;-67
2022/06/09 09:06:01;;;;;;;17.20;6.20;;;;;;;25.31;32.52;99135.97;4972786;28;20082;-68
2022/06/09 09:08:27;;;;;;;15.07;5.00;;;;;;;25.31;32.59;99145.97;4974027;28;20109;-69
2022/06/09 09:11:16;;;;;;;10.93;5.40;;;;;;;25.34;32.36;99140.94;4973998;28;20071;-69
2022/06/09 09:14:00;;;;;;;12.88;4.72;;;;;;;25.31;32.27;99135.16;4974190;28;20045;-69
2022/06/09 09:16:56;;;;;;;9.05;3.88;;;;;;;25.27;32.86;99132.91;4973383;28;20045;-69
2022/06/09 09:20:11;;;;;;;10.98;3.50;;;;;;;25.26;32.46;99136.66;4973815;28;20047;-69
2022/06/09 09:23:01;;;;;;;6.38;3.65;;;;;;;25.24;32.39;99137.94;4958324;28;20042;-69
2022/06/09 09:25:45;;;;;;;7.93;2.87;;;;;;;25.23;32.10;99139.81;4973011;28;20434;-69
2022/06/09 09:28:27;;;;;;;10.95;2.55;;;;;;;25.20;32.01;99129.47;4973600;28;20262;-69
2022/06/09 09:31:24;;;;;;;9.90;2.40;;;;;;;25.21;31.81;99124.84;4973251;28;20042;-69
2022/06/09 09:33:49;;;;;;;10.88;2.40;;;;;;;25.21;31.66;99131.13;4954277;28;20039;-68
2022/06/09 09:36:27;;;;;;;3.58;1.90;;;;;;;25.26;31.44;99128.53;4954186;29;20046;-68
2022/06/09 09:39:02;;;;;;;12.38;2.42;;;;;;;25.32;30.93;99125.97;4954666;28;20505;-68
2022/06/09 09:41:33;;;;;;;2.83;1.70;;;;;;;25.34;31.12;99132.00;4968853;28;20045;-69
2022/06/09 09:43:59;;;;;;;;;;;;;;;25.25;31.42;99139.59;4973949;28;20038;-69
2022/06/09 09:46:33;;;;;;;8.98;2.97;;;;;;;25.23;31.68;99134.41;4973077;28;19946;-69
2022/06/09 09:49:02;;;;;;;5.50;2.05;;;;;;;25.23;31.76;99126.28;4973822;28;20042;-69
2022/06/09 09:51:36;;;;;;;2.47;1.98;;;;;;;25.20;31.86;99120.50;4973005;28;20149;-69
2022/06/09 09:54:19;;;;;;;5.22;1.38;;;;;;;25.20;31.73;99115.91;4972800;28;20038;-69
2022/06/09 09:56:45;;;;;;;4.78;1.63;;;;;;;25.18;32.02;99118.03;4973220;28;20046;-68
2022/06/09 09:59:25;;;;;;;3.20;1.90;;;;;;;25.17;31.82;99112.81;4973684;28;20486;-70
2022/06/09 10:10:28;;;;;;;3.67;2.25;;;;;;;25.12;32.21;99110.78;4971899;28;20078;-70
2022/06/09 10:12:56;;;;;;;5.93;1.52;;;;;;;25.14;32.07;99103.28;4974823;28;20050;-69
2022/06/09 10:15:26;;;;;;;5.22;2.33;;;;;;;25.17;32.42;99100.13;4976270;28;20049;-68
2022/06/09 10:17:52;;;;;;;12.50;2.03;;;;;;;25.15;32.63;99099.53;4973999;28;20090;-68
2022/06/09 10:20:27;;;;;;;5.72;2.17;;;;;;;25.15;32.56;99104.94;4970115;28;20524;-69
2022/06/09 10:22:58;;;;;;;4.93;1.65;;;;;;;25.16;32.70;99098.47;4973113;28;20402;-68
2022/06/09 10:25:39;;;;;;;10.20;1.98;;;;;;;25.18;32.33;99099.06;4974932;28;20486;-70
2022/06/09 10:28:43;;;;;;;6.00;2.08;;;;;;;25.18;32.14;99109.91;4970957;28;20050;-66
2022/06/09 10:31:13;;;;;;;3.70;2.80;;;;;;;25.17;32.13;99105.53;4970615;28;20413;-67
2022/06/09 10:33:52;;;;;;;7.90;2.53;;;;;;;25.16;32.70;99103.88;4969192;28;20042;-68
2022/06/09 10:36:28;;;;;;;15.43;3.90;;;;;;;25.17;32.76;99102.84;4974829;28;20049;-66
2022/06/09 10:39:01;;;;;;;14.95;4.03;;;;;;;25.16;32.83;99101.19;4976245;28;20031;-67
2022/06/09 10:41:49;;;;;;;14.63;3.55;;;;;;;25.16;32.97;99101.19;4973765;28;20038;-70
2022/06/09 10:44:22;;;;;;;13.52;3.58;;;;;;;25.17;32.88;99108.25;4972139;28;20030;-66
2022/06/09 10:55:47;;;;;;;13.68;3.72;;;;;;;25.16;33.47;99095.75;4956894;29;20050;-67
2022/06/09 10:58:42;;;;;;;8.50;2.75;;;;;;;25.18;33.41;99092.81;4972535;28;20042;-65
2022/06/09 11:01:18;;;;;;;6.18;2.90;;;;;;;25.17;33.58;99089.28;4966944;28;20375;-71
2022/06/09 11:03:48;;;;;;;6.85;2.58;;;;;;;25.17;33.50;99086.59;4975059;28;20504;-70
2022/06/09 11:06:32;;;;;;;3.60;2.33;;;;;;;25.18;33.12;99084.69;4974823;28;20054;-67
2022/06/09 11:09:10;;;;;;;7.10;2.28;;;;;;;25.19;32.75;99078.22;4974964;28;20042;-69
2022/06/09 11:11:41;;;;;;;7.68;2.63;;;;;;;25.19;32.92;99084.47;4973942;28;20502;-69
2022/06/09 11:14:32;;;;;;;3.90;2.42;;;;;;;25.18;33.25;99076.56;4975631;28;20570;-69
2022/06/09 22:27:27;;;;;;;5.03;4.28;;;;;;;24.55;42.98;99071.25;5379923;23;19926;-66
2022/06/09 22:29:52;;;;;;;10.85;4.82;;;;;;;24.56;43.30;99074.78;4991519;28;20038;-69
2022/06/09 22:32:18;;;;;;;10.00;5.07;;;;;;;24.56;43.21;99074.78;4995171;28;20042;-68
2022/06/09 22:34:44;;;;;;;8.00;4.50;;;;;;;24.56;43.14;99075.59;4995808;28;20018;-72
2022/06/09 22:37:09;;;;;;;6.35;4.70;;;;;;;24.58;43.55;99080.78;4994950;28;20064;-68
2022/06/09 22:39:35;;;;;;;11.80;4.70;;;;;;;24.56;43.53;99082.91;4995583;28;20035;-70
2022/06/09 22:42:01;;;;;;;4.88;3.92;;;;;;;24.58;43.33;99092.44;4996257;28;20121;-69
2022/06/09 22:44:26;;;;;;;10.43;4.45;;;;;;;24.57;43.64;99077.25;4996302;28;20109;-69
2022/06/09 22:46:52;;;;;;;9.32;4.10;;;;;;;24.56;43.38;99089.13;4994585;28;20489;-69
2022/06/09 22:49:18;;;;;;;6.43;4.63;;;;;;;24.58;43.38;99088.88;4995513;28;20062;-68
2022/06/09 22:51:43;;;;;;;7.75;4.82;;;;;;;24.56;43.78;99082.91;4995326;28;20485;-69
2022/06/09 22:54:09;;;;;;;7.65;4.63;;;;;;;24.58;43.69;99094.28;4996105;28;20042;-70
2022/06/09 22:56:34;;;;;;;8.43;5.28;;;;;;;24.58;43.96;99095.13;4995903;28;20026;-68
2022/06/09 22:59:00;;;;;;;12.27;4.88;;;;;;;24.57;43.61;99093.47;4996059;28;20448;-69
2022/06/09 23:01:26;;;;;;;6.45;4.45;;;;;;;24.56;43.95;99097.22;4995798;28;20031;-70
2022/06/09 23:03:51;;;;;;;6.63;4.30;;;;;;;24.58;44.20;99100.53;4994956;28;20515;-70
2022/06/09 23:06:20;;;;;;;6.10;4.80;;;;;;;24.57;43.85;99090.78;4995533;28;20089;-69
2022/06/09 23:08:46;;;;;;;8.23;4.80;;;;;;;24.56;44.12;99091.81;4995557;28;20033;-69
2022/06/09 23:11:12;;;;;;;6.70;4.40;;;;;;;24.56;43.91;99085.59;4995691;28;20560;-69
2022/06/09 23:13:37;;;;;;;6.80;4.90;;;;;;;24.54;44.45;99083.09;4994671;28;20068;-68
2022/06/09 23:16:04;;;;;;;7.32;4.85;;;;;;;24.54;44.01;99093.91;4988871;28;20033;-69
2022/06/09 23:18:31;;;;;;;6.35;5.05;;;;;;;24.53;43.96;99093.09;4976068;28;20458;-69
2022/06/09 23:20:56;;;;;;;5.97;5.03;;;;;;;24.53;44.36;99081.44;4990383;28;20026;-70